Time;durP1;ratioP1;P1;durP2;ratioP2;P2;SDS_P1;SDS_P2;PMS_P1;PMS_P2;Temp;Humidity;BMP_temperature;BMP_pressure;BME280_temperature;BME280_humidity;BME280_pressure;Samples;Min_cycle;Max_cycle;Signal;HPM_P1;HPM_P2
2020/12/09 09:05:36;;;;;;;37.03;23.43;;;;;;;2.05;93.50;98219.59;5126084;27;20525;-78
2020/12/09 09:08:04;;;;;;;34.83;22.83;;;;;;;2.51;93.74;98213.41;5124873;27;40484;-78
2020/12/09 09:10:31;;;;;;;33.03;22.20;;;;;;;3.05;91.95;98219.88;5124305;27;42979;-80
2020/12/09 09:12:58;;;;;;;33.63;23.77;;;;;;;3.19;89.19;98188.75;5124900;27;43626;-79
2020/12/09 09:15:25;;;;;;;31.47;21.67;;;;;;;3.75;86.80;98222.00;5183411;22;42064;-79
2020/12/09 09:17:53;;;;;;;31.20;21.47;;;;;;;3.96;84.94;98230.66;5027040;28;40624;-80
2020/12/09 09:20:20;;;;;;;31.97;20.33;;;;;;;4.14;83.90;98231.59;5043414;28;41892;-81
2020/12/09 09:22:48;;;;;;;32.73;22.53;;;;;;;4.28;82.44;98231.78;5027225;28;44172;-79
2020/12/09 09:25:15;;;;;;;31.13;20.63;;;;;;;4.30;81.66;98216.84;5043062;28;42048;-79
2020/12/09 09:27:42;;;;;;;28.17;20.03;;;;;;;4.40;81.12;98219.88;5109532;22;40938;-76
2020/12/09 09:30:10;;;;;;;27.93;19.20;;;;;;;4.55;80.50;98238.34;5023351;28;41416;-76
2020/12/09 09:32:37;;;;;;;28.80;20.23;;;;;;;4.59;80.29;98239.03;5055205;28;42866;-76
2020/12/09 09:35:04;;;;;;;28.10;20.17;;;;;;;4.59;79.01;98245.13;5006405;28;43746;-79
2020/12/09 09:37:32;;;;;;;27.30;19.57;;;;;;;4.52;78.40;98238.50;5024865;28;39833;-79
2020/12/09 09:40:33;;;;;;;25.87;18.93;;;;;;;4.20;78.16;98184.16;5129512;22;42338;-81
2020/12/09 09:43:01;;;;;;;27.63;20.40;;;;;;;4.54;78.33;98238.41;5005744;28;43518;-78
2020/12/09 09:45:28;;;;;;;26.03;19.00;;;;;;;4.65;78.04;98255.34;5022943;28;41803;-79
2020/12/09 09:47:55;;;;;;;27.83;19.67;;;;;;;4.68;77.42;98249.09;5039855;28;40019;-78
2020/12/09 09:50:22;;;;;;;28.63;19.73;;;;;;;4.74;77.67;98248.78;5024547;28;41855;-79
2020/12/09 09:52:50;;;;;;;30.17;21.60;;;;;;;4.77;77.44;98247.78;5023778;28;43615;-78
2020/12/09 09:55:18;;;;;;;30.50;20.40;;;;;;;4.79;77.52;98246.78;5038910;28;41943;-79
2020/12/09 09:57:45;;;;;;;29.17;21.57;;;;;;;4.83;76.55;98257.97;5023252;28;40193;-79
2020/12/09 10:00:13;;;;;;;29.47;20.77;;;;;;;4.75;75.97;98241.75;5023862;28;42188;-79
2020/12/09 10:02:40;;;;;;;30.93;21.50;;;;;;;4.81;76.01;98244.09;5038978;28;43045;-78
2020/12/09 10:05:08;;;;;;;33.70;21.40;;;;;;;4.83;76.33;98242.22;5006665;28;42994;-79
2020/12/09 10:07:35;;;;;;;30.93;22.20;;;;;;;4.89;76.01;98239.31;5023778;28;41187;-78
2020/12/09 10:10:03;;;;;;;30.53;21.90;;;;;;;4.92;75.65;98236.56;5023304;28;42146;-78
2020/12/09 10:12:31;;;;;;;33.13;22.47;;;;;;;4.89;75.40;98237.53;5039088;28;42755;-78
2020/12/09 10:14:59;;;;;;;30.87;20.30;;;;;;;4.91;75.82;98229.59;5035721;28;42253;-79
2020/12/09 10:17:27;;;;;;;27.87;19.83;;;;;;;4.86;75.84;98205.34;5009989;28;40379;-79
2020/12/09 10:19:54;;;;;;;33.60;22.10;;;;;;;4.97;75.19;98213.53;4994393;28;42451;-79
2020/12/09 10:22:21;;;;;;;32.60;22.23;;;;;;;5.07;75.39;98217.38;5009779;28;43437;-80
2020/12/09 10:24:48;;;;;;;29.40;21.43;;;;;;;5.08;74.83;98213.84;5008900;28;42769;-80
2020/12/09 10:27:15;;;;;;;30.87;20.40;;;;;;;5.06;74.69;98194.72;5032076;28;39838;-80
2020/12/09 10:29:43;;;;;;;29.77;21.77;;;;;;;5.15;74.74;98210.00;5015948;28;42839;-79
2020/12/09 10:32:11;;;;;;;31.77;23.23;;;;;;;5.11;74.26;98199.72;5014768;28;42942;-78
2020/12/09 10:34:40;;;;;;;33.07;22.47;;;;;;;5.29;74.02;98223.28;5017054;28;43323;-82
2020/12/09 10:37:08;;;;;;;47.50;32.53;;;;;;;5.35;73.72;98225.56;5032098;28;40412;-79
2020/12/09 10:39:35;;;;;;;38.47;26.40;;;;;;;5.41;73.85;98224.41;5008528;28;42249;-78
2020/12/09 10:42:02;;;;;;;35.67;24.90;;;;;;;5.45;73.70;98225.94;5009298;28;45012;-79
2020/12/09 10:44:29;;;;;;;33.17;23.57;;;;;;;5.21;73.66;98180.78;5018438;28;42445;-79
2020/12/09 10:46:57;;;;;;;33.33;23.60;;;;;;;5.33;73.59;98210.81;5012965;28;39701;-79
2020/12/09 10:49:31;;;;;;;33.00;22.60;;;;;;;5.29;73.58;98212.78;5025534;28;41624;-78
2020/12/09 10:52:00;;;;;;;31.30;21.80;;;;;;;5.28;73.05;98224.19;5005455;28;42833;-80
2020/12/09 10:54:27;;;;;;;29.73;21.63;;;;;;;5.25;73.38;98223.50;4990520;28;43009;-80
2020/12/09 10:56:54;;;;;;;31.97;21.77;;;;;;;5.19;73.80;98213.31;5005927;28;40067;-80
2020/12/09 10:59:21;;;;;;;34.43;23.83;;;;;;;4.86;73.64;98174.72;4991938;28;42466;-80
2020/12/09 11:01:49;;;;;;;34.23;23.40;;;;;;;5.16;73.60;98219.56;5004909;28;43347;-79
2020/12/09 11:04:16;;;;;;;32.67;22.33;;;;;;;5.14;73.67;98216.19;5005688;28;42740;-79
2020/12/09 11:06:44;;;;;;;34.03;23.53;;;;;;;5.10;73.43;98212.00;5005703;28;40689;-79
2020/12/09 11:09:24;;;;;;;31.33;22.13;;;;;;;5.02;73.67;98211.53;5005483;28;42693;-78
2020/12/09 11:11:53;;;;;;;30.13;21.27;;;;;;;5.09;73.41;98217.31;5005460;28;44312;-79
2020/12/09 11:14:20;;;;;;;34.87;23.93;;;;;;;5.09;73.55;98218.16;5005965;28;41966;-79
2020/12/09 11:16:47;;;;;;;31.77;21.53;;;;;;;5.08;73.67;98213.84;5008224;28;40765;-79
2020/12/09 11:19:14;;;;;;;28.10;20.40;;;;;;;5.03;73.53;98194.88;4992174;28;41899;-79
2020/12/09 11:21:42;;;;;;;31.93;21.83;;;;;;;5.12;72.93;98217.16;5025057;28;43339;-79
2020/12/09 11:24:09;;;;;;;29.07;21.53;;;;;;;5.10;73.47;98225.13;5007894;28;42238;-79
2020/12/09 11:26:37;;;;;;;31.53;22.40;;;;;;;5.09;73.50;98206.81;5008271;28;41266;-79
2020/12/09 11:29:04;;;;;;;28.67;20.90;;;;;;;5.07;73.46;98199.88;5008396;28;41668;-79
2020/12/09 11:31:32;;;;;;;29.33;20.90;;;;;;;5.09;72.94;98197.16;5008659;28;42847;-79
2020/12/09 11:33:59;;;;;;;25.20;19.60;;;;;;;5.23;72.82;98206.97;5008424;28;42672;-79
2020/12/09 11:36:27;;;;;;;30.23;21.40;;;;;;;5.28;72.86;98213.69;5008513;28;39980;-79
2020/12/09 11:38:54;;;;;;;29.70;19.47;;;;;;;5.22;72.92;98200.03;5008500;28;42172;-79
2020/12/09 11:41:27;;;;;;;28.00;20.27;;;;;;;5.32;72.85;98217.84;5024023;28;42526;-78
2020/12/09 11:43:56;;;;;;;25.90;19.47;;;;;;;5.34;72.76;98208.13;5025550;28;43002;-79
2020/12/09 11:46:23;;;;;;;26.47;20.17;;;;;;;5.32;72.37;98199.47;5006994;28;40001;-79
2020/12/09 11:49:00;;;;;;;29.93;21.20;;;;;;;5.16;72.18;98176.72;5008823;28;43533;-79
2020/12/09 11:51:28;;;;;;;25.83;19.17;;;;;;;5.17;72.31;98179.28;5023306;28;42861;-79
2020/12/09 11:54:56;;;;;;;;;;;;;;;;;;;;;
2020/12/09 11:57:27;;;;;;;28.83;19.87;;;;;;;4.85;72.43;98135.47;4992165;28;40810;-79
2020/12/09 12:00:15;;;;;;;29.07;21.23;;;;;;;4.86;72.47;98127.50;4972068;28;43505;-79
2020/12/09 12:02:43;;;;;;;28.77;21.77;;;;;;;4.96;72.18;98146.25;4977567;28;43815;-80
2020/12/09 12:05:10;;;;;;;30.10;21.03;;;;;;;5.30;72.35;98214.47;5005273;28;42998;-78
2020/12/09 12:07:37;;;;;;;32.30;23.57;;;;;;;5.26;72.26;98206.81;4989434;28;40988;-79
2020/12/09 12:10:05;;;;;;;30.07;21.00;;;;;;;5.23;72.38;98199.94;4989269;28;43390;-79
2020/12/09 12:12:32;;;;;;;29.87;21.53;;;;;;;5.24;72.23;98203.41;4988816;28;42983;-78
2020/12/09 12:15:00;;;;;;;29.50;21.43;;;;;;;5.25;72.62;98213.84;4988332;28;42759;-78
2020/12/09 12:17:28;;;;;;;31.47;22.03;;;;;;;5.20;72.40;98207.97;5000430;28;40072;-79
2020/12/09 12:19:55;;;;;;;32.70;22.47;;;;;;;5.25;72.55;98210.38;5025499;28;41643;-80
2020/12/09 12:22:22;;;;;;;30.83;21.03;;;;;;;5.23;72.32;98207.81;5009471;28;43484;-79
2020/12/09 12:24:50;;;;;;;30.87;21.77;;;;;;;5.21;72.45;98207.03;5008362;28;42978;-79
2020/12/09 12:27:17;;;;;;;30.13;21.97;;;;;;;5.23;72.47;98199.09;4973106;28;40381;-78
2020/12/09 12:29:44;;;;;;;32.67;21.80;;;;;;;5.27;72.54;98201.50;5010277;28;41553;-78
2020/12/09 12:32:12;;;;;;;29.27;21.23;;;;;;;5.29;72.60;98199.66;5014453;28;42616;-79
2020/12/09 12:34:40;;;;;;;27.23;20.07;;;;;;;5.29;72.24;98204.03;4988766;28;42673;-79
2020/12/09 12:37:07;;;;;;;33.40;21.47;;;;;;;5.19;72.53;98181.81;4988438;28;40508;-79
2020/12/09 12:39:34;;;;;;;30.77;21.50;;;;;;;5.33;72.42;98206.41;5005082;28;42312;-79
2020/12/09 12:42:01;;;;;;;29.93;20.47;;;;;;;5.34;72.47;98200.25;5003132;28;42855;-79
2020/12/09 12:44:28;;;;;;;27.27;20.57;;;;;;;5.31;72.09;98189.91;4987832;28;42345;-79
2020/12/09 12:46:55;;;;;;;29.60;20.10;;;;;;;5.26;72.15;98184.03;4988882;28;40891;-79
2020/12/09 12:49:22;;;;;;;27.47;19.80;;;;;;;5.14;71.94;98163.69;4988152;28;43030;-80
2020/12/09 12:51:53;;;;;;;32.87;20.67;;;;;;;5.29;71.76;98202.28;5028042;28;43961;-80
